Time;durP1;ratioP1;P1;durP2;ratioP2;P2;SDS_P1;SDS_P2;PMS_P1;PMS_P2;Temp;Humidity;BMP_temperature;BMP_pressure;BME280_temperature;BME280_humidity;BME280_pressure;Samples;Min_cycle;Max_cycle;Signal;HPM_P1;HPM_P2
2022/05/22 00:01:42;;;;;;;122.05;5.60;;;;;;;;;;4993877;28;20224;-63
2022/05/22 00:04:08;;;;;;;31.65;3.40;;;;;;;;;;4990710;28;20089;-63
2022/05/22 00:06:35;;;;;;;93.30;5.72;;;;;;;;;;4993615;28;20043;-63
2022/05/22 00:09:01;;;;;;;26.38;4.10;;;;;;;;;;4981643;28;20088;-63
2022/05/22 00:11:27;;;;;;;9.30;3.88;;;;;;;;;;4995035;28;20062;-63
2022/05/22 00:13:54;;;;;;;6.82;3.70;;;;;;;;;;5000044;28;20180;-63
2022/05/22 00:16:36;;;;;;;9.20;4.00;;;;;;;;;;4978820;28;20474;-63
2022/05/22 00:19:04;;;;;;;10.68;4.78;;;;;;;;;;4998720;28;20138;-63
2022/05/22 00:21:30;;;;;;;15.15;5.15;;;;;;;;;;5003166;28;20085;-62
2022/05/22 00:23:57;;;;;;;9.40;4.47;;;;;;;;;;4987947;28;20111;-63
2022/05/22 00:26:23;;;;;;;9.02;4.70;;;;;;;;;;4998130;28;20037;-62
2022/05/22 00:28:50;;;;;;;9.93;4.90;;;;;;;;;;4995182;28;20100;-63
2022/05/22 00:31:16;;;;;;;9.27;4.68;;;;;;;;;;4994194;28;20107;-63
2022/05/22 00:33:43;;;;;;;8.50;4.95;;;;;;;;;;4997138;28;20422;-63
2022/05/22 00:36:09;;;;;;;10.60;4.90;;;;;;;;;;4998219;28;20061;-63
2022/05/22 00:38:35;;;;;;;28.45;5.32;;;;;;;;;;4997653;28;20053;-63
2022/05/22 00:41:02;;;;;;;29.60;4.95;;;;;;;;;;5000171;28;20046;-62
2022/05/22 00:43:30;;;;;;;60.10;6.15;;;;;;;;;;4992393;28;20541;-63
2022/05/22 00:45:57;;;;;;;47.53;4.80;;;;;;;;;;4992975;28;20042;-62
2022/05/22 00:48:23;;;;;;;34.00;4.60;;;;;;;;;;4994948;28;20122;-63
2022/05/22 00:50:51;;;;;;;17.95;3.25;;;;;;;;;;4983971;28;20050;-63
2022/05/22 00:53:17;;;;;;;19.30;3.42;;;;;;;;;;4983890;28;20057;-63
2022/05/22 00:55:43;;;;;;;10.60;4.03;;;;;;;;;;4998572;28;20085;-62
2022/05/22 00:58:13;;;;;;;21.90;3.85;;;;;;;;;;4995497;28;20072;-63
2022/05/22 01:00:39;;;;;;;58.78;5.38;;;;;;;;;;5001021;28;20137;-63
2022/05/22 01:05:52;;;;;;;37.97;3.55;;;;;;;;;;4999213;28;20121;-63
2022/05/22 01:08:18;;;;;;;50.05;3.63;;;;;;;;;;4999482;28;20057;-62
2022/05/22 01:10:46;;;;;;;37.97;4.00;;;;;;;;;;4979509;28;20555;-63
2022/05/22 01:13:13;;;;;;;245.70;8.88;;;;;;;;;;4990339;28;20648;-63
2022/05/22 01:15:39;;;;;;;231.68;9.57;;;;;;;;;;4998690;28;20095;-63
2022/05/22 01:18:05;;;;;;;272.08;9.73;;;;;;;;;;4995794;28;20041;-63
2022/05/22 01:20:32;;;;;;;154.95;6.47;;;;;;;;;;5000005;28;20742;-63
2022/05/22 01:22:58;;;;;;;92.75;4.45;;;;;;;;;;4995548;28;20525;-63
2022/05/22 01:25:24;;;;;;;10.85;3.10;;;;;;;;;;4997248;28;20363;-63
2022/05/22 01:27:51;;;;;;;24.30;3.50;;;;;;;;;;4987154;28;20602;-62
2022/05/22 01:30:19;;;;;;;41.85;3.47;;;;;;;;;;4993072;28;20073;-63
2022/05/22 01:32:46;;;;;;;30.42;3.00;;;;;;;;;;4996783;28;20043;-63
2022/05/22 01:35:15;;;;;;;43.58;4.00;;;;;;;;;;4978270;28;20126;-62
2022/05/22 01:37:42;;;;;;;11.38;3.40;;;;;;;;;;4977720;28;20395;-62
2022/05/22 01:40:09;;;;;;;15.60;3.70;;;;;;;;;;4978540;28;20071;-62
2022/05/22 01:42:36;;;;;;;60.97;3.75;;;;;;;;;;4979123;28;20046;-63
2022/05/22 01:45:02;;;;;;;101.88;4.40;;;;;;;;;;4977376;28;20488;-62
2022/05/22 01:47:31;;;;;;;111.50;4.68;;;;;;;;;;4979651;28;20494;-63
2022/05/22 01:49:58;;;;;;;63.55;3.40;;;;;;;;;;4976102;28;20042;-63
2022/05/22 01:52:24;;;;;;;127.85;4.78;;;;;;;;;;4979879;28;20061;-63
2022/05/22 01:54:50;;;;;;;119.97;4.90;;;;;;;;;;4978099;28;20080;-63
2022/05/22 01:57:16;;;;;;;84.38;3.72;;;;;;;;;;4970685;28;20070;-62
2022/05/22 01:59:42;;;;;;;54.75;3.13;;;;;;;;;;4975665;28;20077;-63
2022/05/22 02:02:09;;;;;;;35.25;2.58;;;;;;;;;;4981175;28;20447;-62
2022/05/22 02:04:35;;;;;;;9.23;2.70;;;;;;;;;;4981292;28;20065;-62
2022/05/22 02:09:46;;;;;;;4.20;2.60;;;;;;;;;;4980175;28;20050;-63
2022/05/22 02:12:12;;;;;;;32.38;4.05;;;;;;;;;;4977670;28;20039;-63
2022/05/22 02:14:38;;;;;;;5.32;3.78;;;;;;;;;;4988441;28;20048;-62
2022/05/22 02:17:04;;;;;;;27.92;4.00;;;;;;;;;;4980858;28;20061;-63
2022/05/22 02:19:31;;;;;;;32.78;4.22;;;;;;;;;;4962241;28;20053;-63
2022/05/22 02:21:57;;;;;;;51.05;4.95;;;;;;;;;;4981307;28;20337;-63
2022/05/22 02:24:23;;;;;;;21.63;3.88;;;;;;;;;;4974675;28;20050;-62
2022/05/22 02:26:49;;;;;;;9.57;3.55;;;;;;;;;;4975339;28;20047;-63
2022/05/22 02:29:16;;;;;;;5.40;3.40;;;;;;;;;;4972368;28;20043;-62
2022/05/22 02:31:42;;;;;;;5.32;2.95;;;;;;;;;;4971584;28;20410;-62
2022/05/22 02:34:08;;;;;;;6.63;4.10;;;;;;;;;;4973504;28;20039;-63
2022/05/22 02:36:34;;;;;;;5.38;2.50;;;;;;;;;;4982787;28;20058;-63
2022/05/22 02:39:00;;;;;;;8.13;3.88;;;;;;;;;;4999199;28;20184;-63
2022/05/22 02:41:27;;;;;;;8.60;4.50;;;;;;;;;;5003321;28;20045;-63
2022/05/22 02:43:53;;;;;;;7.45;4.18;;;;;;;;;;4980306;28;20462;-62
2022/05/22 02:46:20;;;;;;;11.23;6.30;;;;;;;;;;4980521;28;20046;-63
2022/05/22 02:48:46;;;;;;;18.88;7.25;;;;;;;;;;4997889;28;20061;-62
2022/05/22 02:51:14;;;;;;;12.88;6.40;;;;;;;;;;4994753;28;20046;-63
2022/05/22 02:53:40;;;;;;;15.00;7.07;;;;;;;;;;4998649;28;20086;-63
2022/05/22 02:56:08;;;;;;;16.75;7.47;;;;;;;;;;4998240;28;20046;-63
2022/05/22 02:58:34;;;;;;;14.95;7.40;;;;;;;;;;4995168;28;20054;-62
2022/05/22 03:01:00;;;;;;;13.95;7.28;;;;;;;;;;4996977;28;20039;-62
2022/05/22 03:03:26;;;;;;;16.23;7.13;;;;;;;;;;4993080;28;20102;-63
2022/05/22 03:08:37;;;;;;;14.77;6.43;;;;;;;;;;4999536;28;20049;-63
2022/05/22 03:11:04;;;;;;;16.20;7.88;;;;;;;;;;4993817;28;20042;-63
2022/05/22 03:13:30;;;;;;;14.10;6.07;;;;;;;;;;4990620;28;20482;-62
2022/05/22 03:15:56;;;;;;;16.85;6.85;;;;;;;;;;4995867;28;20065;-63
2022/05/22 03:18:22;;;;;;;10.27;6.57;;;;;;;;;;4993251;28;20053;-62
2022/05/22 03:20:48;;;;;;;13.63;7.32;;;;;;;;;;4997891;28;20120;-62
2022/05/22 03:23:15;;;;;;;15.45;7.22;;;;;;;;;;4995109;28;20046;-62
2022/05/22 03:25:41;;;;;;;88.18;6.55;;;;;;;;;;4991785;28;20478;-63
2022/05/22 03:28:07;;;;;;;95.35;6.63;;;;;;;;;;4994922;28;20099;-62
2022/05/22 03:30:34;;;;;;;80.63;6.75;;;;;;;;;;4998320;28;20045;-63
2022/05/22 03:33:00;;;;;;;57.35;6.53;;;;;;;;;;4983014;28;20072;-62
2022/05/22 03:35:26;;;;;;;41.22;4.57;;;;;;;;;;4997722;28;20212;-63
2022/05/22 03:37:52;;;;;;;12.70;3.75;;;;;;;;;;4987154;28;20500;-63
2022/05/22 03:40:18;;;;;;;9.45;4.10;;;;;;;;;;4994186;28;20375;-63
2022/05/22 03:42:44;;;;;;;13.35;5.47;;;;;;;;;;4997186;28;20146;-62
2022/05/22 03:45:11;;;;;;;8.63;4.25;;;;;;;;;;4999369;28;20069;-62
2022/05/22 03:47:38;;;;;;;17.55;3.88;;;;;;;;;;4995122;28;20046;-62
2022/05/22 03:50:06;;;;;;;16.58;5.78;;;;;;;;;;4998596;28;20077;-62
2022/05/22 03:52:33;;;;;;;16.30;5.40;;;;;;;;;;4999276;28;20057;-63
2022/05/22 03:54:59;;;;;;;14.73;5.07;;;;;;;;;;4993472;28;20181;-63
2022/05/22 03:57:25;;;;;;;162.88;9.45;;;;;;;;;;5002487;28;20347;-63
2022/05/22 03:59:51;;;;;;;155.10;8.07;;;;;;;;;;4993354;28;20544;-63
2022/05/22 04:02:18;;;;;;;50.20;5.70;;;;;;;;;;4997961;28;20351;-62
2022/05/22 04:04:44;;;;;;;138.80;8.05;;;;;;;;;;4999559;28;20370;-62
2022/05/22 04:07:10;;;;;;;109.47;6.90;;;;;;;;;;4989092;28;20050;-63
2022/05/22 04:09:36;;;;;;;107.68;5.95;;;;;;;;;;4994778;28;20133;-62
2022/05/22 04:12:06;;;;;;;73.90;6.40;;;;;;;;;;5002198;28;20038;-62
2022/05/22 04:14:32;;;;;;;191.63;13.60;;;;;;;;;;5006941;28;20498;-63
2022/05/22 04:16:58;;;;;;;70.20;7.97;;;;;;;;;;4992553;28;20098;-62
2022/05/22 04:19:25;;;;;;;118.07;10.30;;;;;;;;;;4998159;28;20414;-63
2022/05/22 04:21:51;;;;;;;116.68;9.95;;;;;;;;;;5000994;28;20060;-63
2022/05/22 04:27:03;;;;;;;163.50;12.98;;;;;;;;;;4994420;28;20144;-62
2022/05/22 04:29:31;;;;;;;196.13;13.63;;;;;;;;;;4991115;28;20042;-63
2022/05/22 04:31:57;;;;;;;178.30;14.27;;;;;;;;;;4996223;28;20552;-63
2022/05/22 04:34:23;;;;;;;200.25;14.55;;;;;;;;;;5001378;28;20049;-63
2022/05/22 04:36:49;;;;;;;251.32;18.90;;;;;;;;;;5005775;28;20081;-62
2022/05/22 04:39:16;;;;;;;342.40;21.48;;;;;;;;;;4992359;28;20047;-62
2022/05/22 04:41:42;;;;;;;331.95;21.38;;;;;;;;;;4989888;28;20042;-63
2022/05/22 04:44:08;;;;;;;277.60;19.88;;;;;;;;;;4989848;28;20077;-62
2022/05/22 04:46:34;;;;;;;110.07;16.10;;;;;;;;;;4992453;28;20481;-63
2022/05/22 04:49:00;;;;;;;166.48;16.30;;;;;;;;;;4989529;28;20093;-63
2022/05/22 04:51:27;;;;;;;133.38;15.48;;;;;;;;;;4997328;28;20046;-63
2022/05/22 04:53:53;;;;;;;50.38;14.20;;;;;;;;;;4993727;28;20038;-63
2022/05/22 04:56:20;;;;;;;52.85;14.70;;;;;;;;;;4994752;28;20052;-63
2022/05/22 04:58:47;;;;;;;33.50;13.13;;;;;;;;;;4992339;28;20180;-63
2022/05/22 05:01:13;;;;;;;45.33;14.27;;;;;;;;;;4999985;28;20046;-62
2022/05/22 05:03:39;;;;;;;47.13;14.20;;;;;;;;;;4989088;28;20043;-63
2022/05/22 05:06:06;;;;;;;26.08;13.18;;;;;;;;;;4994789;28;20039;-63
2022/05/22 05:08:32;;;;;;;32.45;15.57;;;;;;;;;;4997000;28;20054;-62
2022/05/22 05:10:59;;;;;;;26.30;15.05;;;;;;;;;;4992323;28;20049;-63
2022/05/22 05:13:26;;;;;;;35.38;15.85;;;;;;;;;;4997481;28;20613;-63
2022/05/22 05:16:03;;;;;;;45.65;19.48;;;;;;;;;;4998305;28;20038;-63
2022/05/22 05:18:29;;;;;;;45.28;19.42;;;;;;;;;;4994843;28;20057;-63
2022/05/22 05:20:56;;;;;;;47.90;20.63;;;;;;;;;;4996128;28;20240;-63
2022/05/22 05:23:22;;;;;;;46.95;21.33;;;;;;;;;;4992468;28;20038;-62
2022/05/22 05:25:48;;;;;;;41.50;21.98;;;;;;;;;;4995477;28;20046;-62
2022/05/22 05:28:14;;;;;;;43.10;20.73;;;;;;;;;;4994899;28;20042;-62
2022/05/22 05:30:41;;;;;;;54.20;23.02;;;;;;;;;;4992548;28;20046;-62
2022/05/22 05:33:07;;;;;;;54.03;20.45;;;;;;;;;;4991535;28;20391;-62
2022/05/22 05:35:33;;;;;;;39.50;20.00;;;;;;;;;;5000666;28;20100;-63
2022/05/22 05:37:59;;;;;;;48.60;20.00;;;;;;;;;;4996231;28;20125;-63
2022/05/22 05:40:25;;;;;;;51.45;20.30;;;;;;;;;;4998483;28;20050;-64
2022/05/22 05:42:52;;;;;;;38.08;19.48;;;;;;;;;;4997537;28;21715;-63
2022/05/22 05:45:18;;;;;;;44.80;19.67;;;;;;;;;;4998100;28;20042;-64
2022/05/22 05:47:46;;;;;;;41.10;18.25;;;;;;;;;;4997669;28;20119;-64
2022/05/22 05:50:12;;;;;;;39.35;17.05;;;;;;;;;;4998266;28;20046;-63
2022/05/22 05:52:38;;;;;;;40.78;18.15;;;;;;;;;;4996667;28;20446;-63
2022/05/22 05:55:07;;;;;;;39.08;16.65;;;;;;;;;;5002619;28;20494;-63
2022/05/22 05:57:33;;;;;;;36.53;17.40;;;;;;;;;;4997880;28;20050;-64
2022/05/22 05:59:59;;;;;;;29.33;16.10;;;;;;;;;;4989751;28;20215;-64
2022/05/22 06:02:25;;;;;;;35.40;17.42;;;;;;;;;;4999029;28;20046;-64
2022/05/22 06:04:52;;;;;;;31.88;14.63;;;;;;;;;;4998094;28;20041;-64
2022/05/22 06:07:18;;;;;;;27.60;12.75;;;;;;;;;;4986258;28;20052;-64
2022/05/22 06:09:44;;;;;;;25.13;11.57;;;;;;;;;;5001935;28;20370;-64
2022/05/22 06:12:10;;;;;;;24.02;10.90;;;;;;;;;;5005974;28;20034;-64
2022/05/22 06:14:37;;;;;;;27.75;11.27;;;;;;;;;;5001872;28;20038;-64
2022/05/22 06:17:03;;;;;;;22.10;10.68;;;;;;;;;;5005721;28;20094;-64
2022/05/22 06:22:15;;;;;;;21.38;9.45;;;;;;;;;;5001939;28;20050;-63
2022/05/22 06:24:41;;;;;;;36.42;9.95;;;;;;;;;;4985896;28;20045;-64
2022/05/22 06:27:07;;;;;;;28.00;9.77;;;;;;;;;;5003647;28;20034;-64
2022/05/22 06:29:33;;;;;;;21.40;9.77;;;;;;;;;;5002352;28;20048;-65
2022/05/22 06:32:00;;;;;;;21.05;9.25;;;;;;;;;;5003888;28;20547;-64
2022/05/22 06:34:26;;;;;;;24.33;9.50;;;;;;;;;;4999215;28;20053;-63
2022/05/22 06:36:53;;;;;;;22.45;9.98;;;;;;;;;;5007005;28;20042;-63
2022/05/22 06:42:04;;;;;;;22.85;8.80;;;;;;;;;;5001580;28;20095;-64
2022/05/22 06:44:30;;;;;;;20.27;7.75;;;;;;;;;;4994745;28;20054;-64
2022/05/22 06:46:56;;;;;;;20.67;7.82;;;;;;;;;;5003914;28;20045;-63
2022/05/22 06:49:23;;;;;;;18.48;7.68;;;;;;;;;;4985093;28;20430;-63
2022/05/22 06:51:50;;;;;;;21.67;7.50;;;;;;;;;;5001559;28;20415;-63
2022/05/22 06:54:16;;;;;;;20.30;7.90;;;;;;;;;;5004284;28;20046;-64
2022/05/22 06:56:43;;;;;;;16.17;6.13;;;;;;;;;;5000869;28;20053;-63
2022/05/22 06:59:09;;;;;;;18.08;6.70;;;;;;;;;;4996403;28;20112;-64
2022/05/22 07:01:35;;;;;;;15.18;5.22;;;;;;;;;;4997447;28;20125;-64
2022/05/22 07:04:02;;;;;;;20.17;7.35;;;;;;;;;;4998880;28;20046;-64
2022/05/22 07:06:28;;;;;;;20.88;6.03;;;;;;;;;;4993807;28;20129;-63
2022/05/22 07:08:54;;;;;;;17.05;4.95;;;;;;;;;;4996282;28;20049;-64
2022/05/22 07:11:38;;;;;;;12.23;3.15;;;;;;;;;;4995897;28;20034;-64
2022/05/22 07:14:05;;;;;;;10.45;3.05;;;;;;;;;;4983824;28;20068;-64
2022/05/22 07:16:32;;;;;;;9.40;3.17;;;;;;;;;;4993113;28;20466;-65
2022/05/22 07:18:58;;;;;;;13.70;3.25;;;;;;;;;;4994600;28;20493;-64
2022/05/22 07:21:24;;;;;;;9.02;2.80;;;;;;;;;;4995149;28;20042;-70
2022/05/22 07:23:51;;;;;;;9.75;3.53;;;;;;;;;;4980927;28;20121;-64
2022/05/22 07:26:19;;;;;;;12.73;3.20;;;;;;;;;;4993431;28;20043;-64
2022/05/22 07:28:46;;;;;;;18.55;3.95;;;;;;;;;;4994578;28;20061;-74
2022/05/22 07:31:16;;;;;;;11.32;3.55;;;;;;;;;;4982177;28;20520;-69
2022/05/22 07:33:42;;;;;;;12.88;5.15;;;;;;;;;;4993012;28;20049;-64
2022/05/22 07:36:08;;;;;;;14.27;4.93;;;;;;;;;;4998365;28;20058;-64
2022/05/22 07:38:35;;;;;;;15.27;4.55;;;;;;;;;;4997898;28;20042;-64
2022/05/22 07:41:01;;;;;;;13.55;4.38;;;;;;;;;;5001821;28;20441;-64
2022/05/22 07:43:27;;;;;;;14.57;5.00;;;;;;;;;;5000497;28;20054;-64
2022/05/22 07:45:54;;;;;;;14.20;4.68;;;;;;;;;;5001635;28;20570;-64
2022/05/22 07:48:20;;;;;;;13.98;4.45;;;;;;;;;;5000006;28;20043;-64
2022/05/22 07:50:46;;;;;;;13.15;4.82;;;;;;;;;;4999185;28;20046;-63
2022/05/22 07:53:13;;;;;;;11.30;4.68;;;;;;;;;;5001681;28;20124;-63
2022/05/22 07:55:40;;;;;;;12.70;4.88;;;;;;;;;;4995417;28;20038;-63
2022/05/22 07:58:06;;;;;;;10.32;4.78;;;;;;;;;;4987507;28;20149;-63
2022/05/22 08:00:33;;;;;;;12.35;4.10;;;;;;;;;;4987511;28;20065;-63
2022/05/22 08:02:59;;;;;;;9.07;3.33;;;;;;;;;;4997256;28;20042;-64
2022/05/22 08:05:25;;;;;;;12.30;4.28;;;;;;;;;;4997575;28;20053;-63
2022/05/22 08:07:51;;;;;;;12.27;4.00;;;;;;;;;;4991379;28;20509;-64
2022/05/22 08:10:18;;;;;;;11.90;4.25;;;;;;;;;;4998769;28;20038;-64
2022/05/22 08:12:47;;;;;;;11.30;3.92;;;;;;;;;;4999962;28;20081;-63
2022/05/22 08:15:14;;;;;;;17.15;4.32;;;;;;;;;;5002074;28;20046;-64
2022/05/22 08:17:41;;;;;;;14.75;4.18;;;;;;;;;;5001812;28;20038;-64
2022/05/22 08:20:08;;;;;;;13.88;3.90;;;;;;;;;;4999435;28;20042;-64
2022/05/22 08:22:34;;;;;;;15.48;4.05;;;;;;;;;;5002657;28;20045;-64
2022/05/22 08:25:01;;;;;;;11.23;3.67;;;;;;;;;;5000492;28;20073;-64
2022/05/22 08:27:28;;;;;;;13.52;3.88;;;;;;;;;;5002216;28;20457;-64
2022/05/22 08:29:55;;;;;;;9.48;2.90;;;;;;;;;;5004163;28;20044;-64
2022/05/22 08:32:21;;;;;;;14.38;4.07;;;;;;;;;;5001063;28;20415;-64
2022/05/22 08:34:48;;;;;;;9.95;2.88;;;;;;;;;;4999345;28;20145;-64
2022/05/22 08:37:14;;;;;;;10.40;3.15;;;;;;;;;;4987497;28;20041;-64
2022/05/22 08:39:40;;;;;;;10.65;3.28;;;;;;;;;;5000066;28;20042;-64
2022/05/22 08:42:08;;;;;;;19.02;3.55;;;;;;;;;;4999713;28;20046;-64
2022/05/22 08:44:35;;;;;;;9.43;2.63;;;;;;;;;;5000751;28;20409;-64
2022/05/22 08:47:04;;;;;;;13.25;3.63;;;;;;;;;;4998977;28;20076;-64
2022/05/22 08:49:35;;;;;;;20.58;3.40;;;;;;;;;;5002122;28;20069;-64
2022/05/22 08:52:09;;;;;;;11.75;3.00;;;;;;;;;;5002697;28;20498;-64
2022/05/22 08:54:41;;;;;;;8.25;2.80;;;;;;;;;;5002133;28;20049;-64
2022/05/22 08:59:59;;;;;;;11.43;2.85;;;;;;;;;;5003611;28;20184;-64
2022/05/22 09:02:33;;;;;;;14.98;2.92;;;;;;;;;;5001831;28;20056;-64
2022/05/22 09:04:59;;;;;;;12.57;3.33;;;;;;;;;;5000805;28;20038;-64
2022/05/22 09:07:31;;;;;;;10.55;2.78;;;;;;;;;;4983540;28;20401;-64
2022/05/22 09:10:01;;;;;;;13.23;3.43;;;;;;;;;;5002382;28;20038;-63
2022/05/22 09:12:41;;;;;;;13.63;4.05;;;;;;;;;;5003246;28;20091;-64
2022/05/22 09:15:12;;;;;;;8.40;2.47;;;;;;;;;;5007869;28;20042;-64
2022/05/22 09:17:46;;;;;;;14.40;3.78;;;;;;;;;;4984383;28;20045;-63
2022/05/22 09:20:17;;;;;;;13.43;3.88;;;;;;;;;;4998240;28;20053;-64
2022/05/22 09:22:53;;;;;;;17.08;4.38;;;;;;;;;;5001809;28;20050;-64
2022/05/22 09:25:25;;;;;;;14.73;4.07;;;;;;;;;;5005390;28;20045;-64
2022/05/22 09:27:52;;;;;;;9.45;3.08;;;;;;;;;;5003897;28;20046;-64
2022/05/22 09:30:22;;;;;;;9.85;3.65;;;;;;;;;;5003799;28;20048;-64
2022/05/22 09:32:50;;;;;;;10.55;2.83;;;;;;;;;;5004632;28;20410;-63
2022/05/22 09:35:29;;;;;;;11.93;3.22;;;;;;;;;;4995247;28;20073;-63
2022/05/22 09:38:08;;;;;;;11.98;3.15;;;;;;;;;;4993020;28;20490;-64
2022/05/22 09:40:35;;;;;;;16.17;4.15;;;;;;;;;;5005529;28;20034;-64
2022/05/22 09:43:16;;;;;;;10.65;3.00;;;;;;;;;;4996235;28;20054;-64
2022/05/22 09:45:48;;;;;;;9.35;2.60;;;;;;;;;;4993774;28;20076;-64
2022/05/22 09:48:20;;;;;;;12.30;3.08;;;;;;;;;;4994708;28;20499;-63
2022/05/22 09:50:51;;;;;;;11.57;3.83;;;;;;;;;;4996937;28;20042;-64
2022/05/22 09:53:36;;;;;;;8.43;2.97;;;;;;;;;;4999919;28;20046;-64
2022/05/22 09:56:11;;;;;;;9.75;3.13;;;;;;;;;;5001892;28;20165;-64
2022/05/22 09:58:46;;;;;;;11.23;2.83;;;;;;;;;;4998228;28;20049;-64
2022/05/22 10:01:17;;;;;;;9.80;2.38;;;;;;;;;;4999675;28;20073;-64
2022/05/22 10:03:51;;;;;;;14.55;3.15;;;;;;;;;;4999584;28;20096;-64
2022/05/22 10:06:23;;;;;;;11.38;3.15;;;;;;;;;;4997405;28;20073;-64
2022/05/22 10:08:56;;;;;;;12.02;3.40;;;;;;;;;;4996479;28;20042;-64
2022/05/22 10:11:27;;;;;;;13.75;3.28;;;;;;;;;;4997392;28;20112;-64
2022/05/22 10:13:59;;;;;;;11.73;3.55;;;;;;;;;;4996761;28;20065;-64
2022/05/22 10:16:38;;;;;;;9.07;2.35;;;;;;;;;;4996484;28;20116;-64
2022/05/22 10:19:09;;;;;;;13.38;3.85;;;;;;;;;;4996695;28;20050;-64
2022/05/22 10:21:44;;;;;;;12.05;3.30;;;;;;;;;;4999347;28;20088;-64
2022/05/22 10:24:23;;;;;;;13.30;3.50;;;;;;;;;;4994664;28;20050;-64
2022/05/22 10:26:59;;;;;;;8.63;2.60;;;;;;;;;;4995459;28;20250;-64
2022/05/22 10:29:30;;;;;;;8.85;2.83;;;;;;;;;;4998068;28;20059;-64
2022/05/22 10:32:04;;;;;;;8.77;2.15;;;;;;;;;;5002216;28;20057;-64
2022/05/22 10:34:42;;;;;;;12.10;2.58;;;;;;;;;;4998371;28;20046;-64
2022/05/22 10:37:15;;;;;;;11.00;2.95;;;;;;;;;;4997593;28;20047;-64
2022/05/22 10:39:41;;;;;;;9.80;2.03;;;;;;;;;;4998967;28;20493;-64
2022/05/22 10:45:02;;;;;;;9.88;2.38;;;;;;;;;;4999184;28;20514;-64
2022/05/22 10:47:32;;;;;;;9.23;2.30;;;;;;;;;;4998241;28;20086;-64
2022/05/22 10:49:59;;;;;;;7.57;2.38;;;;;;;;;;4997964;28;20034;-64
2022/05/22 10:52:30;;;;;;;11.40;2.60;;;;;;;;;;4985231;28;20042;-64
2022/05/22 10:54:56;;;;;;;10.43;2.80;;;;;;;;;;4998333;28;20097;-64
2022/05/22 10:57:26;;;;;;;7.90;2.28;;;;;;;;;;4998021;28;20442;-64
2022/05/22 10:59:53;;;;;;;8.20;2.67;;;;;;;;;;4999359;28;20397;-64
2022/05/22 11:02:22;;;;;;;15.35;3.17;;;;;;;;;;4980682;28;20046;-64
2022/05/22 11:04:49;;;;;;;8.02;2.00;;;;;;;;;;5001721;28;20046;-65
2022/05/22 11:07:28;;;;;;;10.07;2.38;;;;;;;;;;4995375;28;20401;-64
2022/05/22 11:09:55;;;;;;;9.88;2.47;;;;;;;;;;4999021;28;20116;-64
2022/05/22 11:12:23;;;;;;;10.05;2.20;;;;;;;;;;4999748;28;20042;-64
2022/05/22 11:14:49;;;;;;;9.85;2.58;;;;;;;;;;4976973;28;20057;-64
2022/05/22 11:17:17;;;;;;;9.50;2.10;;;;;;;;;;4995601;28;20046;-65
2022/05/22 11:19:45;;;;;;;9.52;2.28;;;;;;;;;;5001377;28;20087;-64
2022/05/22 11:22:11;;;;;;;7.45;2.20;;;;;;;;;;4997723;28;20507;-65
2022/05/22 11:24:43;;;;;;;9.07;2.08;;;;;;;;;;5001107;28;20119;-64
2022/05/22 11:27:17;;;;;;;7.68;2.28;;;;;;;;;;4994705;28;20553;-64
2022/05/22 11:29:44;;;;;;;7.90;2.00;;;;;;;;;;4992330;28;20379;-64
2022/05/22 11:32:17;;;;;;;12.05;2.40;;;;;;;;;;5003917;28;20049;-64
2022/05/22 11:34:53;;;;;;;8.50;2.05;;;;;;;;;;4994400;28;20057;-64
2022/05/22 11:37:20;;;;;;;7.70;1.75;;;;;;;;;;4996389;28;20060;-64
2022/05/22 11:39:53;;;;;;;8.48;2.05;;;;;;;;;;4993649;28;20069;-64
2022/05/22 11:42:32;;;;;;;8.07;2.33;;;;;;;;;;4997409;28;20094;-64
2022/05/22 11:45:07;;;;;;;7.55;1.90;;;;;;;;;;4991552;28;20054;-64
2022/05/22 11:47:47;;;;;;;10.32;2.10;;;;;;;;;;4993359;28;20039;-64
2022/05/22 11:50:14;;;;;;;6.25;1.80;;;;;;;;;;5000993;28;20038;-64
2022/05/22 11:52:56;;;;;;;6.85;1.85;;;;;;;;;;4971693;28;20077;-64
2022/05/22 11:55:26;;;;;;;9.25;2.22;;;;;;;;;;4984245;28;20073;-64
2022/05/22 11:58:05;;;;;;;7.18;1.70;;;;;;;;;;5001050;28;20129;-64
2022/05/22 12:00:32;;;;;;;7.25;2.17;;;;;;;;;;4996822;28;20077;-64
2022/05/22 12:03:07;;;;;;;7.35;1.95;;;;;;;;;;4997980;28;20097;-64
2022/05/22 12:05:39;;;;;;;7.82;1.70;;;;;;;;;;4995183;28;20050;-64
2022/05/22 12:08:23;;;;;;;5.65;1.60;;;;;;;;;;4983341;28;20058;-64
2022/05/22 12:11:12;;;;;;;7.15;2.10;;;;;;;;;;4999910;28;20173;-64
2022/05/22 12:13:38;;;;;;;7.57;1.75;;;;;;;;;;4995420;28;20463;-64
2022/05/22 12:16:11;;;;;;;9.10;2.15;;;;;;;;;;5003047;28;20070;-64
2022/05/22 12:18:37;;;;;;;;;;;;;;;;;;4996956;28;20046;-64
2022/05/22 12:21:06;;;;;;;10.93;2.20;;;;;;;;;;4999290;28;19929;-64
2022/05/22 12:23:39;;;;;;;6.65;1.90;;;;;;;;;;4997622;28;20097;-64
2022/05/22 12:26:07;;;;;;;7.38;1.63;;;;;;;;;;4994253;28;20545;-64
2022/05/22 12:28:48;;;;;;;9.82;1.92;;;;;;;;;;4990852;28;20058;-64
2022/05/22 12:31:18;;;;;;;10.35;1.58;;;;;;;;;;4993345;28;20046;-64
2022/05/22 12:33:44;;;;;;;6.93;2.08;;;;;;;;;;4991568;28;20050;-63
2022/05/22 12:36:12;;;;;;;6.75;1.77;;;;;;;;;;4978609;28;20069;-64
2022/05/22 12:38:43;;;;;;;6.85;1.60;;;;;;;;;;4995170;28;20046;-64
2022/05/22 12:41:26;;;;;;;8.18;1.95;;;;;;;;;;4995593;28;20478;-64
2022/05/22 12:43:53;;;;;;;6.90;1.58;;;;;;;;;;4996576;28;20045;-64
2022/05/22 12:46:20;;;;;;;7.80;2.05;;;;;;;;;;4998047;28;20038;-64
2022/05/22 12:48:48;;;;;;;5.85;1.67;;;;;;;;;;4997088;28;20129;-64
2022/05/22 12:51:14;;;;;;;6.68;1.40;;;;;;;;;;4997128;28;20049;-64
2022/05/22 12:53:43;;;;;;;8.70;1.65;;;;;;;;;;4995473;28;20084;-64
2022/05/22 12:56:19;;;;;;;8.82;1.77;;;;;;;;;;4994278;28;20112;-64
2022/05/22 12:58:47;;;;;;;7.45;2.00;;;;;;;;;;4995666;28;20050;-64
2022/05/22 13:01:24;;;;;;;5.45;1.77;;;;;;;;;;5000194;28;20773;-64
2022/05/22 13:03:51;;;;;;;7.32;2.00;;;;;;;;;;4996965;28;20382;-65
2022/05/22 13:06:20;;;;;;;8.45;2.25;;;;;;;;;;4999857;28;20058;-64
2022/05/22 13:08:58;;;;;;;8.18;1.70;;;;;;;;;;4994925;28;20060;-64
2022/05/22 13:11:30;;;;;;;5.55;1.70;;;;;;;;;;4998423;28;20473;-64
2022/05/22 13:13:57;;;;;;;5.38;1.35;;;;;;;;;;4998330;28;20042;-64
2022/05/22 13:16:26;;;;;;;7.10;1.48;;;;;;;;;;4990320;28;20038;-64
2022/05/22 13:18:52;;;;;;;6.88;1.67;;;;;;;;;;5000525;28;20121;-64
2022/05/22 13:21:28;;;;;;;8.38;1.67;;;;;;;;;;4997442;28;20172;-64
2022/05/22 13:24:02;;;;;;;7.97;1.85;;;;;;;;;;4994500;28;20104;-64
2022/05/22 13:26:29;;;;;;;8.13;1.73;;;;;;;;;;4997056;28;20054;-64
2022/05/22 13:28:58;;;;;;;5.53;1.20;;;;;;;;;;4997692;28;20487;-64
2022/05/22 13:31:34;;;;;;;6.72;1.85;;;;;;;;;;4991967;28;20034;-64
2022/05/22 13:34:08;;;;;;;6.93;1.63;;;;;;;;;;4994939;28;20041;-64
2022/05/22 13:36:40;;;;;;;4.95;1.45;;;;;;;;;;4994244;28;20046;-64
2022/05/22 13:39:13;;;;;;;8.00;1.92;;;;;;;;;;4993558;28;20502;-64
2022/05/22 13:41:58;;;;;;;7.55;1.98;;;;;;;;;;4991509;28;20053;-64
2022/05/22 13:44:49;;;;;;;5.40;1.55;;;;;;;;;;4990288;28;20089;-64
2022/05/22 13:47:21;;;;;;;7.75;1.60;;;;;;;;;;4997341;28;20048;-64
2022/05/22 13:52:34;;;;;;;6.47;1.70;;;;;;;;;;4993967;28;20038;-65
2022/05/22 13:52:53;;;;;;;7.07;1.63;;;;;;;;;;4992606;28;20517;-64
2022/05/22 13:55:21;;;;;;;7.28;1.70;;;;;;;;;;4990160;28;20059;-64
2022/05/22 13:57:51;;;;;;;5.28;1.63;;;;;;;;;;4994737;28;20038;-64
2022/05/22 14:00:22;;;;;;;4.82;1.27;;;;;;;;;;4994209;28;20149;-64
2022/05/22 14:03:06;;;;;;;5.43;1.20;;;;;;;;;;4997756;28;20457;-64
2022/05/22 14:05:36;;;;;;;6.70;1.50;;;;;;;;;;4985934;28;21003;-64
2022/05/22 14:08:08;;;;;;;9.20;1.77;;;;;;;;;;4996844;28;20486;-65
2022/05/22 14:10:35;;;;;;;6.80;1.77;;;;;;;;;;4976231;28;20100;-64
2022/05/22 14:13:18;;;;;;;5.70;1.40;;;;;;;;;;5001386;28;20049;-64
2022/05/22 14:15:52;;;;;;;5.10;1.45;;;;;;;;;;4998349;28;20506;-64
2022/05/22 14:18:20;;;;;;;8.63;1.75;;;;;;;;;;5000903;28;20039;-64
2022/05/22 14:20:48;;;;;;;8.55;2.22;;;;;;;;;;5000254;28;20551;-64
2022/05/22 14:23:21;;;;;;;5.22;1.60;;;;;;;;;;5000758;28;20089;-64
2022/05/22 14:25:53;;;;;;;6.75;1.90;;;;;;;;;;5001322;28;20096;-64
2022/05/22 14:28:25;;;;;;;7.50;1.60;;;;;;;;;;5000033;28;20472;-64
2022/05/22 14:30:52;;;;;;;10.10;1.55;;;;;;;;;;5000664;28;20058;-64
2022/05/22 14:33:20;;;;;;;6.53;1.75;;;;;;;;;;5001437;28;20035;-64
2022/05/22 14:35:50;;;;;;;10.50;1.77;;;;;;;;;;4999692;28;20058;-63
2022/05/22 14:38:20;;;;;;;10.82;1.70;;;;;;;;;;4981411;28;20113;-63
2022/05/22 14:40:54;;;;;;;9.07;1.70;;;;;;;;;;4982755;28;20120;-64
2022/05/22 14:43:24;;;;;;;6.35;1.70;;;;;;;;;;4970102;28;20116;-64
2022/05/22 14:45:52;;;;;;;7.95;1.75;;;;;;;;;;4984066;28;20923;-64
2022/05/22 14:48:21;;;;;;;6.85;1.67;;;;;;;;;;4999276;28;20041;-64
2022/05/22 14:50:50;;;;;;;6.95;1.98;;;;;;;;;;4986333;28;20093;-63
2022/05/22 14:53:22;;;;;;;7.78;1.67;;;;;;;;;;5001352;28;20069;-62
2022/05/22 14:55:51;;;;;;;6.83;1.77;;;;;;;;;;5000102;28;20053;-64
2022/05/22 14:58:20;;;;;;;7.40;1.63;;;;;;;;;;4989911;28;20511;-64
2022/05/22 15:00:52;;;;;;;7.35;1.52;;;;;;;;;;5004546;28;20054;-63
2022/05/22 15:03:27;;;;;;;5.00;1.30;;;;;;;;;;4997935;28;20460;-63
2022/05/22 15:05:55;;;;;;;7.28;1.73;;;;;;;;;;4976961;28;20454;-63